createdAt,value
2022-09-20T00:00:02.094Z,1.10
2022-09-20T00:02:33.318Z,1.53
2022-09-20T00:04:59.808Z,1.42
2022-09-20T00:07:26.275Z,1.27
2022-09-20T00:09:52.736Z,1.15
2022-09-20T00:12:19.198Z,1.24
2022-09-20T00:14:45.644Z,1.19
2022-09-20T00:17:12.087Z,1.23
2022-09-20T00:19:38.579Z,1.24
2022-09-20T00:22:05.103Z,1.22
2022-09-20T00:24:31.689Z,1.27
2022-09-20T00:26:58.135Z,1.18
2022-09-20T00:29:24.592Z,1.30
2022-09-20T00:31:51.103Z,1.16
2022-09-20T00:34:17.569Z,1.31
2022-09-20T00:36:44.946Z,1.36
2022-09-20T00:39:14.684Z,1.15
2022-09-20T00:41:41.937Z,1.09
2022-09-20T00:44:43.623Z,1.20
2022-09-20T00:47:37.313Z,1.32
2022-09-20T00:50:25.376Z,1.07
2022-09-20T00:53:02.385Z,0.99
2022-09-20T00:55:29.899Z,1.09
2022-09-20T00:57:58.653Z,1.17
2022-09-20T01:00:27.079Z,1.08
2022-09-20T01:03:00.967Z,1.36
2022-09-20T01:05:27.849Z,1.10
2022-09-20T01:07:56.708Z,1.22
2022-09-20T01:10:23.345Z,1.12
2022-09-20T01:12:53.542Z,1.23
2022-09-20T01:15:22.444Z,1.14
2022-09-20T01:17:54.843Z,1.05
2022-09-20T01:20:32.146Z,1.15
2022-09-20T01:22:58.531Z,1.36
2022-09-20T01:25:52.341Z,1.12
2022-09-20T01:28:18.823Z,1.19
2022-09-20T01:30:57.249Z,1.00
2022-09-20T01:33:38.543Z,1.23
2022-09-20T01:36:06.082Z,1.24
2022-09-20T01:39:09.663Z,1.21
2022-09-20T01:41:58.722Z,1.24
2022-09-20T01:44:37.295Z,1.12
2022-09-20T01:47:56.639Z,1.13
2022-09-20T01:50:37.058Z,1.19
2022-09-20T01:53:21.453Z,1.16
2022-09-20T01:56:07.729Z,1.25
2022-09-20T01:59:12.794Z,1.24
2022-09-20T02:01:53.661Z,1.31
2022-09-20T02:04:26.479Z,1.22
2022-09-20T02:07:27.948Z,1.36
2022-09-20T02:10:38.709Z,1.21
2022-09-20T02:13:43.803Z,1.38
2022-09-20T02:16:22.516Z,1.21
2022-09-20T02:19:27.415Z,1.36
2022-09-20T02:22:09.485Z,1.24
2022-09-20T02:25:00.517Z,1.35
2022-09-20T02:27:45.044Z,1.14
2022-09-20T02:30:34.201Z,1.28
2022-09-20T02:33:23.327Z,1.16
2022-09-20T02:36:13.447Z,1.10
2022-09-20T02:39:07.700Z,1.39
2022-09-20T02:41:55.685Z,1.25
2022-09-20T02:44:33.068Z,1.40
2022-09-20T02:47:21.001Z,1.15
2022-09-20T02:50:18.786Z,1.30
2022-09-20T02:53:11.608Z,1.30
2022-09-20T02:55:52.081Z,1.36
2022-09-20T02:58:36.821Z,1.28
2022-09-20T03:01:30.539Z,1.26
2022-09-20T03:04:21.093Z,1.43
2022-09-20T03:06:56.385Z,1.35
2022-09-20T03:10:20.103Z,1.51
2022-09-20T03:12:54.976Z,1.17
2022-09-20T03:15:57.774Z,1.22
2022-09-20T03:18:51.744Z,1.34
2022-09-20T03:21:59.661Z,1.27
2022-09-20T03:24:43.491Z,1.25
2022-09-20T03:27:31.277Z,1.27
2022-09-20T03:29:57.671Z,1.30
2022-09-20T03:32:42.381Z,1.38
2022-09-20T03:35:42.294Z,1.30
2022-09-20T03:38:27.038Z,1.41
2022-09-20T03:41:08.650Z,1.21
2022-09-20T03:43:56.795Z,1.26
2022-09-20T03:46:48.317Z,1.41
2022-09-20T03:49:42.084Z,1.37
2022-09-20T03:52:39.012Z,1.49
2022-09-20T03:55:37.408Z,1.20
2022-09-20T03:58:22.273Z,1.28
2022-09-20T04:01:09.633Z,1.32
2022-09-20T04:03:57.826Z,1.46
2022-09-20T04:06:43.016Z,1.29
2022-09-20T04:09:09.388Z,1.23
2022-09-20T04:12:07.310Z,1.52
2022-09-20T04:15:10.274Z,1.47
2022-09-20T04:17:53.330Z,1.38
2022-09-20T04:20:28.459Z,1.34
2022-09-20T04:23:02.221Z,1.37
2022-09-20T04:25:44.020Z,1.57
2022-09-20T04:28:42.990Z,1.47
2022-09-20T04:31:27.560Z,1.69
2022-09-20T04:33:59.402Z,1.55
2022-09-20T04:36:57.544Z,1.68
2022-09-20T04:39:39.150Z,1.50
2022-09-20T04:42:53.421Z,1.46
2022-09-20T04:45:37.853Z,1.35
2022-09-20T04:48:38.909Z,1.52
2022-09-20T04:51:48.206Z,1.59
2022-09-20T04:54:17.337Z,1.53
2022-09-20T04:57:02.032Z,1.72
2022-09-20T05:00:03.273Z,1.43
2022-09-20T05:02:54.845Z,1.69
2022-09-20T05:05:30.766Z,1.79
2022-09-20T05:08:15.371Z,1.76
2022-09-20T05:11:00.593Z,1.87
2022-09-20T05:13:38.306Z,1.52
2022-09-20T05:16:14.373Z,1.71
2022-09-20T05:18:57.408Z,1.78
2022-09-20T05:21:59.542Z,1.59
2022-09-20T05:24:52.961Z,1.99
2022-09-20T05:27:46.178Z,2.02
2022-09-20T05:30:31.930Z,1.79
2022-09-20T05:33:04.319Z,1.85
2022-09-20T05:35:45.585Z,1.95
2022-09-20T05:38:27.178Z,1.77
2022-09-20T05:41:34.582Z,2.09
2022-09-20T05:44:16.044Z,1.80
2022-09-20T05:46:57.761Z,1.89
2022-09-20T05:50:01.888Z,1.98
2022-09-20T05:53:06.354Z,1.94
2022-09-20T05:55:54.014Z,1.97
2022-09-20T05:59:07.802Z,2.06
2022-09-20T06:01:59.941Z,1.86
2022-09-20T06:04:35.700Z,2.03
2022-09-20T06:07:19.026Z,1.95
2022-09-20T06:10:10.809Z,2.02
2022-09-20T06:12:48.771Z,2.16
2022-09-20T06:15:34.731Z,2.11
2022-09-20T06:18:16.105Z,1.94
2022-09-20T06:21:00.306Z,1.95
2022-09-20T06:23:27.658Z,1.98
2022-09-20T06:26:02.220Z,1.97
2022-09-20T06:28:34.581Z,1.94
2022-09-20T06:31:01.234Z,1.94
2022-09-20T06:33:28.878Z,1.90
2022-09-20T06:36:18.209Z,2.15
2022-09-20T06:39:09.203Z,1.78
2022-09-20T06:41:36.965Z,2.01
2022-09-20T06:44:03.589Z,1.98
2022-09-20T06:46:32.572Z,1.95
2022-09-20T06:48:59.573Z,1.97
2022-09-20T06:51:28.515Z,1.92
2022-09-20T06:53:56.953Z,2.17
2022-09-20T06:56:31.048Z,1.95
2022-09-20T06:58:57.522Z,1.78
2022-09-20T07:01:30.056Z,2.53
2022-09-20T07:03:56.966Z,3.26
2022-09-20T07:06:23.418Z,2.93
2022-09-20T07:08:49.875Z,2.78
2022-09-20T07:11:17.524Z,2.64
2022-09-20T07:13:45.329Z,2.23
2022-09-20T07:16:13.441Z,1.81
2022-09-20T07:18:40.653Z,2.11
2022-09-20T07:21:11.457Z,2.87
2022-09-20T07:23:37.928Z,2.65
2022-09-20T07:26:04.833Z,3.58
2022-09-20T07:28:34.587Z,3.92
2022-09-20T07:31:02.645Z,4.64
2022-09-20T07:33:29.086Z,4.60
2022-09-20T07:35:55.767Z,5.25
2022-09-20T07:38:22.993Z,5.33
2022-09-20T07:40:57.731Z,6.10
2022-09-20T07:43:25.174Z,5.51
2022-09-20T07:45:52.976Z,5.13
2022-09-20T07:48:19.650Z,4.69
2022-09-20T07:50:55.946Z,4.55
2022-09-20T07:53:22.719Z,4.83
2022-09-20T07:56:07.542Z,4.85
2022-09-20T07:58:35.679Z,4.89
2022-09-20T08:01:06.451Z,4.17
2022-09-20T08:03:34.140Z,4.08
2022-09-20T08:06:05.877Z,4.49
2022-09-20T08:08:34.685Z,4.32
2022-09-20T08:11:09.524Z,4.72
2022-09-20T08:14:08.360Z,5.95
2022-09-20T08:16:24.365Z,5.64
2022-09-20T08:18:53.939Z,5.60
2022-09-20T08:21:20.519Z,5.46
2022-09-20T08:23:47.859Z,5.02
2022-09-20T08:26:17.441Z,4.49
2022-09-20T08:28:44.862Z,4.45
2022-09-20T08:31:14.079Z,5.03
2022-09-20T08:33:40.795Z,4.73
2022-09-20T08:36:11.519Z,4.79
2022-09-20T08:41:40.415Z,4.37
2022-09-20T08:44:17.218Z,4.77
2022-09-20T08:46:49.787Z,5.44
2022-09-20T08:49:27.350Z,5.79
2022-09-20T08:51:57.898Z,7.73
2022-09-20T08:54:32.864Z,8.18
2022-09-20T08:57:09.305Z,7.98
2022-09-20T08:59:35.766Z,9.69
2022-09-20T09:02:02.350Z,11.75
2022-09-20T09:04:36.344Z,11.75
2022-09-20T09:07:03.988Z,9.33
2022-09-20T09:09:37.677Z,8.60
2022-09-20T09:12:05.168Z,6.30
2022-09-20T09:14:34.528Z,4.99
2022-09-20T09:17:01.105Z,4.44
2022-09-20T09:19:46.518Z,3.66
2022-09-20T09:22:19.847Z,3.29
2022-09-20T09:25:07.445Z,2.66
2022-09-20T09:27:34.486Z,2.14
2022-09-20T09:30:01.054Z,2.02
2022-09-20T09:32:32.419Z,2.20
2022-09-20T09:35:40.614Z,2.10
2022-09-20T09:38:18.666Z,2.16
2022-09-20T09:40:54.959Z,2.69
2022-09-20T09:43:30.575Z,3.59
2022-09-20T09:46:17.632Z,6.67
2022-09-20T09:48:45.686Z,6.97
2022-09-20T09:51:15.042Z,9.28
2022-09-20T09:53:43.165Z,11.55
2022-09-20T09:56:29.146Z,11.82
2022-09-20T09:58:55.710Z,10.85
2022-09-20T10:01:48.368Z,10.46
2022-09-20T10:04:32.408Z,11.19
2022-09-20T10:07:26.950Z,10.74
2022-09-20T10:10:08.191Z,9.43
2022-09-20T10:13:09.969Z,6.00
2022-09-20T10:15:49.387Z,5.87
2022-09-20T10:18:23.717Z,5.80
2022-09-20T10:21:04.123Z,5.94
2022-09-20T10:24:02.042Z,6.38
2022-09-20T10:26:43.507Z,5.99
2022-09-20T10:29:34.784Z,5.53
2022-09-20T10:32:15.241Z,5.63
2022-09-20T10:35:07.886Z,6.80
2022-09-20T10:37:49.649Z,5.04
2022-09-20T10:40:24.258Z,4.32
2022-09-20T10:43:05.986Z,4.03
2022-09-20T10:46:20.615Z,4.57
2022-09-20T10:48:42.117Z,4.07
2022-09-20T10:51:37.917Z,4.15
2022-09-20T10:54:40.884Z,3.65
2022-09-20T10:57:44.417Z,3.41
2022-09-20T11:00:43.275Z,3.06
2022-09-20T11:06:46.902Z,3.47
2022-09-20T11:18:04.235Z,2.47
2022-09-20T11:20:45.549Z,2.42
2022-09-20T11:23:30.017Z,2.50
2022-09-20T11:26:10.502Z,1.90
2022-09-20T11:28:46.186Z,1.86
2022-09-20T11:31:38.611Z,1.58
2022-09-20T11:34:20.397Z,1.48
2022-09-20T11:36:57.160Z,1.60
2022-09-20T11:39:54.981Z,1.46
2022-09-20T11:42:28.538Z,1.79
2022-09-20T11:44:56.005Z,1.68
2022-09-20T11:47:53.194Z,1.51
2022-09-20T11:50:36.595Z,1.67
2022-09-20T11:53:41.007Z,1.58
2022-09-20T11:56:24.091Z,1.67
2022-09-20T12:09:52.459Z,1.84
2022-09-20T12:12:58.967Z,1.59
2022-09-20T12:16:00.196Z,1.43
2022-09-20T12:21:20.267Z,1.56
2022-09-20T12:23:46.870Z,1.52
2022-09-20T12:26:19.221Z,1.47
2022-09-20T12:28:51.886Z,1.58
2022-09-20T12:31:18.641Z,1.56
2022-09-20T12:33:58.679Z,1.30
2022-09-20T12:36:27.806Z,1.37
2022-09-20T12:38:59.874Z,1.65
2022-09-20T12:41:28.845Z,1.49
2022-09-20T12:44:23.926Z,1.42
2022-09-20T12:46:59.178Z,1.34
2022-09-20T12:49:39.543Z,1.38
2022-09-20T12:52:23.478Z,1.46
2022-09-20T12:54:53.737Z,1.13
2022-09-20T12:57:32.752Z,1.55
2022-09-20T13:00:02.282Z,1.16
2022-09-20T13:02:43.150Z,1.16
2022-09-20T13:05:36.097Z,1.17
2022-09-20T13:08:12.216Z,1.11
2022-09-20T13:11:08.680Z,0.97
2022-09-20T13:13:44.196Z,1.23
2022-09-20T13:16:22.818Z,1.01
2022-09-20T13:19:02.323Z,0.99
2022-09-20T13:21:29.294Z,1.04
2022-09-20T13:23:56.536Z,0.97
2022-09-20T13:26:29.553Z,0.99
2022-09-20T13:28:57.226Z,1.13
2022-09-20T13:31:26.295Z,1.17
2022-09-20T13:33:53.929Z,1.19
2022-09-20T13:36:30.079Z,1.25
2022-09-20T13:38:57.818Z,1.22
2022-09-20T13:41:29.508Z,1.24
2022-09-20T13:43:56.207Z,1.14
2022-09-20T13:46:29.285Z,1.21
2022-09-20T13:49:11.470Z,1.10
2022-09-20T13:51:46.198Z,1.05
2022-09-20T13:54:32.370Z,1.09
2022-09-20T13:57:03.401Z,1.21
2022-09-20T13:59:40.516Z,1.26
2022-09-20T14:02:35.097Z,1.29
2022-09-20T14:05:30.302Z,1.06
2022-09-20T14:08:00.788Z,1.14
2022-09-20T14:10:34.781Z,1.16
2022-09-20T14:13:04.703Z,1.42
2022-09-20T14:15:37.939Z,1.34
2022-09-20T14:18:09.187Z,1.36
2022-09-20T14:20:36.015Z,1.35
2022-09-20T14:23:02.641Z,1.17
2022-09-20T14:25:35.281Z,1.19
2022-09-20T14:28:19.216Z,1.25
2022-09-20T14:30:54.112Z,1.27
2022-09-20T14:33:22.949Z,1.20
2022-09-20T14:36:06.275Z,1.14
2022-09-20T14:38:48.338Z,1.36
2022-09-20T14:46:12.148Z,1.43
2022-09-20T14:51:24.128Z,1.16
2022-09-20T14:54:13.199Z,1.34
2022-09-20T14:56:42.549Z,1.16
2022-09-20T14:59:11.778Z,1.13
2022-09-20T15:01:44.303Z,1.24
2022-09-20T15:04:23.413Z,1.34
2022-09-20T15:06:51.286Z,1.17
2022-09-20T15:09:20.577Z,1.42
2022-09-20T15:11:47.309Z,1.27
2022-09-20T15:14:13.853Z,1.33
2022-09-20T15:16:40.484Z,1.35
2022-09-20T15:19:07.102Z,1.32
2022-09-20T15:21:33.702Z,1.30
2022-09-20T15:24:00.674Z,1.25
2022-09-20T15:26:27.146Z,1.30
2022-09-20T15:28:53.611Z,1.43
2022-09-20T15:31:20.189Z,1.61
2022-09-20T15:33:46.676Z,1.42
2022-09-20T15:36:13.276Z,1.59
2022-09-20T15:38:39.742Z,1.22
2022-09-20T15:41:06.294Z,1.33
2022-09-20T15:43:32.812Z,1.42
2022-09-20T15:46:34.780Z,1.48
2022-09-20T15:49:02.455Z,1.42
2022-09-20T15:51:29.555Z,1.49
2022-09-20T15:54:00.023Z,1.48
2022-09-20T15:56:29.184Z,1.36
2022-09-20T15:58:58.474Z,1.45
2022-09-20T16:01:27.075Z,1.35
2022-09-20T16:03:54.737Z,1.43
2022-09-20T16:06:22.011Z,1.42
2022-09-20T16:08:48.718Z,1.71
2022-09-20T16:11:22.241Z,1.48
2022-09-20T16:13:57.483Z,1.37
2022-09-20T16:16:25.880Z,1.48
2022-09-20T16:18:52.456Z,1.48
2022-09-20T16:21:19.471Z,1.79
2022-09-20T16:23:52.278Z,1.49
2022-09-20T16:26:20.619Z,1.42
2022-09-20T16:28:48.039Z,1.55
2022-09-20T16:31:40.430Z,1.65
2022-09-20T16:34:41.321Z,1.88
2022-09-20T16:37:13.129Z,1.57
2022-09-20T16:39:39.645Z,1.58
2022-09-20T16:42:07.071Z,1.65
2022-09-20T16:44:36.286Z,1.42
2022-09-20T16:47:03.732Z,1.58
2022-09-20T16:49:30.252Z,1.46
2022-09-20T16:51:56.676Z,1.66
2022-09-20T16:54:23.146Z,2.34
2022-09-20T16:56:50.945Z,1.61
2022-09-20T16:59:20.343Z,1.99
2022-09-20T17:01:47.995Z,1.56
2022-09-20T17:04:15.476Z,1.57
2022-09-20T17:06:41.999Z,1.44
2022-09-20T17:09:08.899Z,1.56
2022-09-20T17:11:43.715Z,1.66
2022-09-20T17:14:10.174Z,1.79
2022-09-20T17:16:38.889Z,1.73
2022-09-20T17:19:08.677Z,1.97
2022-09-20T17:21:38.456Z,2.09
2022-09-20T17:24:06.760Z,2.16
2022-09-20T17:26:36.317Z,2.18
2022-09-20T17:29:07.200Z,1.95
2022-09-20T17:31:39.148Z,2.09
2022-09-20T17:34:09.300Z,2.09
2022-09-20T17:36:40.807Z,1.91
2022-09-20T17:39:09.110Z,1.70
2022-09-20T17:41:35.634Z,2.11
2022-09-20T17:44:02.100Z,2.09
2022-09-20T17:46:31.020Z,2.06
2022-09-20T17:48:59.986Z,1.97
2022-09-20T17:51:41.991Z,1.81
2022-09-20T17:54:10.021Z,2.56
2022-09-20T17:56:36.448Z,2.08
2022-09-20T17:59:05.192Z,2.10
2022-09-20T18:01:34.363Z,2.04
2022-09-20T18:04:02.534Z,1.77
2022-09-20T18:06:38.978Z,1.74
2022-09-20T18:09:08.550Z,1.84
2022-09-20T18:11:38.149Z,2.33
2022-09-20T18:14:07.590Z,1.98
2022-09-20T18:16:34.530Z,1.81
2022-09-20T18:19:01.797Z,1.63
2022-09-20T18:21:31.075Z,1.99
2022-09-20T18:23:57.527Z,1.88
2022-09-20T18:26:27.451Z,2.00
2022-09-20T18:29:07.258Z,1.81
2022-09-20T18:31:37.191Z,1.79
2022-09-20T18:34:09.849Z,1.73
2022-09-20T18:36:38.592Z,2.01
2022-09-20T18:39:08.206Z,1.73
2022-09-20T18:41:37.988Z,1.69
2022-09-20T18:44:07.119Z,2.27
2022-09-20T18:46:34.413Z,1.68
2022-09-20T18:49:01.534Z,2.31
2022-09-20T18:51:28.023Z,2.15
2022-09-20T18:53:55.996Z,2.12
2022-09-20T18:56:32.981Z,1.81
2022-09-20T18:59:02.477Z,1.60
2022-09-20T19:01:48.529Z,1.55
2022-09-20T19:04:48.830Z,1.52
2022-09-20T19:07:27.614Z,1.64
2022-09-20T19:10:14.545Z,1.71
2022-09-20T19:13:08.833Z,1.88
2022-09-20T19:15:59.864Z,2.28
2022-09-20T19:18:54.713Z,1.61
2022-09-20T19:21:34.201Z,2.05
2022-09-20T19:24:19.565Z,1.84
2022-09-20T19:26:46.198Z,1.59
2022-09-20T19:29:26.506Z,1.45
2022-09-20T19:31:56.106Z,1.64
2022-09-20T19:34:28.113Z,1.78
2022-09-20T19:37:18.523Z,1.60
2022-09-20T19:40:03.478Z,1.75
2022-09-20T19:42:33.019Z,1.69
2022-09-20T19:44:59.442Z,1.54
2022-09-20T19:48:01.955Z,1.71
2022-09-20T19:50:42.748Z,1.46
2022-09-20T19:53:09.605Z,1.58
2022-09-20T19:55:36.444Z,1.57
2022-09-20T19:58:03.610Z,1.56
2022-09-20T20:00:30.546Z,1.60
2022-09-20T20:02:57.950Z,1.62
2022-09-20T20:05:24.668Z,1.44
2022-09-20T20:08:00.018Z,1.56
2022-09-20T20:10:50.582Z,1.65
2022-09-20T20:13:29.243Z,1.47
2022-09-20T20:16:04.741Z,1.28
2022-09-20T20:18:36.035Z,1.28
2022-09-20T20:21:12.566Z,1.30
2022-09-20T20:24:11.225Z,1.51
2022-09-20T20:26:37.812Z,1.56
2022-09-20T20:29:04.280Z,1.47
2022-09-20T20:31:30.753Z,1.48
2022-09-20T20:33:57.245Z,1.52
2022-09-20T20:36:23.729Z,1.62
2022-09-20T20:38:50.231Z,1.46
2022-09-20T20:41:19.597Z,1.54
2022-09-20T20:43:47.562Z,1.61
2022-09-20T20:46:16.761Z,1.43
2022-09-20T20:48:43.424Z,1.52
2022-09-20T20:51:16.020Z,1.60
2022-09-20T20:53:48.221Z,1.59
2022-09-20T20:56:18.467Z,1.55
2022-09-20T20:58:46.710Z,1.57
2022-09-20T21:01:20.198Z,1.49
2022-09-20T21:03:49.869Z,1.43
2022-09-20T21:06:17.235Z,1.39
2022-09-20T21:08:49.602Z,1.48
2022-09-20T21:11:25.588Z,1.51
2022-09-20T21:13:56.102Z,1.48
2022-09-20T21:16:28.009Z,1.44
2022-09-20T21:18:54.733Z,1.30
2022-09-20T21:21:30.111Z,1.42
2022-09-20T21:23:58.964Z,1.47
2022-09-20T21:26:27.063Z,1.55
2022-09-20T21:28:58.505Z,1.43
2022-09-20T21:31:27.867Z,1.34
2022-09-20T21:33:54.412Z,1.53
2022-09-20T21:36:23.528Z,1.44
2022-09-20T21:38:50.153Z,1.40
2022-09-20T21:41:21.989Z,1.39
2022-09-20T21:43:52.472Z,1.36
2022-09-20T21:46:24.267Z,1.45
2022-09-20T21:48:50.905Z,1.58
2022-09-20T21:51:19.575Z,1.34
2022-09-20T21:53:46.959Z,1.51
2022-09-20T21:56:16.075Z,1.52
2022-09-20T21:58:42.861Z,1.66
2022-09-20T22:01:11.961Z,1.67
2022-09-20T22:03:41.485Z,1.68
2022-09-20T22:06:18.335Z,1.60
2022-09-20T22:09:01.130Z,1.72
2022-09-20T22:11:30.666Z,1.83
2022-09-20T22:13:58.425Z,1.77
2022-09-20T22:16:27.695Z,1.64
2022-09-20T22:18:54.247Z,1.69
2022-09-20T22:21:34.278Z,1.91
2022-09-20T22:24:03.559Z,1.79
2022-09-20T22:26:32.997Z,1.80
2022-09-20T22:28:59.990Z,1.64
2022-09-20T22:31:28.985Z,1.63
2022-09-20T22:33:58.436Z,1.64
2022-09-20T22:36:27.751Z,1.84
2022-09-20T22:38:54.710Z,1.97
2022-09-20T22:41:21.770Z,1.75
2022-09-20T22:43:48.637Z,1.98
2022-09-20T22:46:18.047Z,1.83
2022-09-20T22:48:44.705Z,2.01
2022-09-20T22:51:22.947Z,1.95
2022-09-20T22:53:50.412Z,1.84
2022-09-20T22:56:22.893Z,1.99
2022-09-20T22:58:52.201Z,2.02
2022-09-20T23:01:21.899Z,2.12
2022-09-20T23:03:55.882Z,1.92
2022-09-20T23:06:26.047Z,2.02
2022-09-20T23:08:55.106Z,2.30
2022-09-20T23:11:22.304Z,2.16
2022-09-20T23:13:57.099Z,2.20
2022-09-20T23:16:26.809Z,1.94
2022-09-20T23:18:55.363Z,2.15
2022-09-20T23:21:22.484Z,1.97
2022-09-20T23:24:09.985Z,2.07
2022-09-20T23:26:38.973Z,2.03
2022-09-20T23:29:11.064Z,2.07
2022-09-20T23:31:41.112Z,2.05
2022-09-20T23:34:09.405Z,2.22
2022-09-20T23:36:38.945Z,2.29
2022-09-20T23:39:07.207Z,1.94
2022-09-20T23:41:34.712Z,2.03
2022-09-20T23:44:01.300Z,2.12
2022-09-20T23:46:27.795Z,2.14
2022-09-20T23:48:54.269Z,2.22
2022-09-20T23:51:25.796Z,2.25
2022-09-20T23:53:53.660Z,2.28
2022-09-20T23:56:21.708Z,2.03
2022-09-20T23:58:48.530Z,2.26
